Terminal Aerodrome Forecast
Issued by NWS

Home | Current Version | Previous Version | Text Only | Print | Product List | Glossary On
Versions: 1 2 3 4 5 6 7 8 9 10 11 12 13 14 15 16 17 18 19 20 21 22 23 24 25 26 27 28 29 30 31 32
000
FTUS45 KCYS 010520
TAFLAR
TAF
KLAR 010520Z 0106/0206 12012KT P6SM SKC
     FM010900 14010KT 4SM BR BKN015
     FM011500 15009KT P6SM SCT080
     FM012000 07012G20KT P6SM VCSH SCT080
     FM020100 15008KT P6SM SCT080=

USA.gov is the U.S. government's official web portal to all federal, state and local government web resources and services.